createdAt,value
2019-02-18T00:02:31.944Z,101696.52
2019-02-18T00:05:12.619Z,101695.36
2019-02-18T00:07:42.816Z,101685.89
2019-02-18T00:10:31.179Z,101693.26
2019-02-18T00:13:01.443Z,101692.67
2019-02-18T00:15:31.653Z,101696.70
2019-02-18T00:18:01.861Z,101698.28
2019-02-18T00:20:32.065Z,101692.15
2019-02-18T00:23:02.264Z,101692.61
2019-02-18T00:25:32.479Z,101696.37
2019-02-18T00:28:02.690Z,101691.27
2019-02-18T00:30:32.868Z,101691.36
2019-02-18T00:33:03.055Z,101693.69
2019-02-18T00:35:36.222Z,101696.17
2019-02-18T00:38:06.424Z,101699.39
2019-02-18T00:40:43.613Z,101696.73
2019-02-18T00:43:13.814Z,101699.78
2019-02-18T00:45:43.992Z,101698.23
2019-02-18T00:48:14.191Z,101704.19
2019-02-18T00:50:44.384Z,101696.92
2019-02-18T00:53:14.677Z,101698.44
2019-02-18T00:55:44.831Z,101702.07
2019-02-18T00:58:15.021Z,101707.92
2019-02-18T01:00:52.013Z,101695.55
2019-02-18T01:03:37.532Z,101699.08
2019-02-18T01:06:07.704Z,101699.80
2019-02-18T01:08:37.899Z,101702.13
2019-02-18T01:11:29.326Z,101699.16
2019-02-18T01:13:59.522Z,101700.42
2019-02-18T01:16:29.691Z,101701.08
2019-02-18T01:19:35.471Z,101693.50
2019-02-18T01:22:11.125Z,101694.75
2019-02-18T01:24:41.333Z,101699.27
2019-02-18T01:27:11.514Z,101694.95
2019-02-18T01:29:56.728Z,101693.69
2019-02-18T01:32:26.902Z,101696.78
2019-02-18T01:34:57.103Z,101690.86
2019-02-18T01:37:27.290Z,101697.81
2019-02-18T01:40:02.205Z,101694.66
2019-02-18T01:42:58.382Z,101692.36
2019-02-18T01:45:28.585Z,101693.55
2019-02-18T01:47:58.784Z,101693.44
2019-02-18T01:50:30.040Z,101688.94
2019-02-18T01:53:00.230Z,101687.08
2019-02-18T01:55:44.572Z,101689.25
2019-02-18T01:58:14.763Z,101688.50
2019-02-18T02:00:48.184Z,101688.24
2019-02-18T02:03:20.245Z,101682.89
2019-02-18T02:05:50.512Z,101681.70
2019-02-18T02:08:25.231Z,101682.76
2019-02-18T02:11:03.707Z,101677.27
2019-02-18T02:13:35.650Z,101673.49
2019-02-18T02:16:07.502Z,101671.09
2019-02-18T02:18:37.683Z,101677.89
2019-02-18T02:21:07.891Z,101678.44
2019-02-18T02:23:38.059Z,101684.14
2019-02-18T02:26:09.352Z,101679.18
2019-02-18T02:28:39.515Z,101677.17
2019-02-18T02:31:09.719Z,101670.46
2019-02-18T02:33:39.973Z,101666.28
2019-02-18T02:36:10.173Z,101668.17
2019-02-18T02:38:42.294Z,101663.08
2019-02-18T02:41:12.472Z,101661.61
2019-02-18T02:43:45.703Z,101657.39
2019-02-18T02:46:15.905Z,101663.70
2019-02-18T02:48:47.127Z,101662.59
2019-02-18T02:51:23.053Z,101656.56
2019-02-18T02:54:04.368Z,101657.97
2019-02-18T02:57:07.845Z,101657.89
2019-02-18T02:59:43.102Z,101656.22
2019-02-18T03:02:14.178Z,101656.76
2019-02-18T03:04:44.389Z,101659.55
2019-02-18T03:07:14.568Z,101656.02
2019-02-18T03:09:45.732Z,101656.44
2019-02-18T03:12:16.831Z,101649.77
2019-02-18T03:14:47.017Z,101654.88
2019-02-18T03:17:17.225Z,101647.23
2019-02-18T03:19:47.419Z,101650.80
2019-02-18T03:22:18.745Z,101648.77
2019-02-18T03:25:23.115Z,101642.76
2019-02-18T03:28:19.026Z,101648.77
2019-02-18T03:30:55.439Z,101640.08
2019-02-18T03:33:45.275Z,101638.54
2019-02-18T03:36:15.938Z,101640.59
2019-02-18T03:38:46.119Z,101643.78
2019-02-18T03:41:28.368Z,101637.09
2019-02-18T03:43:59.622Z,101637.15
2019-02-18T03:46:29.826Z,101641.79
2019-02-18T03:49:00.004Z,101634.52
2019-02-18T03:51:40.784Z,101636.96
2019-02-18T03:54:30.789Z,101637.52
2019-02-18T03:57:08.613Z,101635.22
2019-02-18T03:59:38.807Z,101633.50
2019-02-18T04:02:09.010Z,101633.83
2019-02-18T04:04:55.179Z,101637.58
2019-02-18T04:07:25.359Z,101633.19
2019-02-18T04:09:56.539Z,101639.78
2019-02-18T04:12:51.985Z,101630.17
2019-02-18T04:15:29.099Z,101630.63
2019-02-18T04:17:59.286Z,101629.30
2019-02-18T04:20:29.479Z,101629.94
2019-02-18T04:22:59.685Z,101627.70
2019-02-18T04:25:29.880Z,101627.70
2019-02-18T04:28:06.185Z,101627.37
2019-02-18T04:30:36.360Z,101632.81
2019-02-18T04:33:06.584Z,101628.89
2019-02-18T04:35:36.766Z,101628.33
2019-02-18T04:38:06.953Z,101631.73
2019-02-18T04:40:40.815Z,101634.20
2019-02-18T04:43:11.011Z,101628.66
2019-02-18T04:45:43.311Z,101630.05
2019-02-18T04:48:21.666Z,101633.69
2019-02-18T04:50:56.229Z,101629.66
2019-02-18T04:53:27.357Z,101627.51
2019-02-18T04:55:57.559Z,101631.41
2019-02-18T04:58:27.715Z,101639.67
2019-02-18T05:01:24.084Z,101640.48
2019-02-18T05:03:59.900Z,101635.42
2019-02-18T05:06:30.084Z,101631.30
2019-02-18T05:09:05.324Z,101628.09
2019-02-18T05:11:36.068Z,101626.69
2019-02-18T05:14:15.076Z,101624.96
2019-02-18T05:16:45.287Z,101623.50
2019-02-18T05:19:58.871Z,101626.49
2019-02-18T05:22:29.068Z,101625.16
2019-02-18T05:25:02.367Z,101625.14
2019-02-18T05:27:33.535Z,101626.98
2019-02-18T05:30:12.323Z,101629.17
2019-02-18T05:32:48.335Z,101625.80
2019-02-18T05:35:41.679Z,101622.24
2019-02-18T05:38:11.892Z,101616.33
2019-02-18T05:40:42.067Z,101614.83
2019-02-18T05:43:17.905Z,101617.02
2019-02-18T05:45:49.002Z,101611.53
2019-02-18T05:48:19.196Z,101626.72
2019-02-18T05:50:54.076Z,101619.89
2019-02-18T05:53:24.266Z,101621.75
2019-02-18T05:55:54.436Z,101620.89
2019-02-18T05:58:39.802Z,101619.05
2019-02-18T06:01:13.604Z,101619.97
2019-02-18T06:03:43.809Z,101619.47
2019-02-18T06:06:13.982Z,101618.08
2019-02-18T06:08:59.583Z,101618.56
2019-02-18T06:11:33.655Z,101612.27
2019-02-18T06:14:15.841Z,101614.04
2019-02-18T06:16:46.022Z,101612.81
2019-02-18T06:19:16.229Z,101604.97
2019-02-18T06:21:49.522Z,101617.01
2019-02-18T06:24:28.809Z,101604.06
2019-02-18T06:27:00.626Z,101607.03
2019-02-18T06:29:30.824Z,101593.70
2019-02-18T06:32:04.876Z,101595.53
2019-02-18T06:34:35.071Z,101591.30
2019-02-18T06:37:05.243Z,101591.41
2019-02-18T06:39:47.526Z,101582.83
2019-02-18T06:42:17.704Z,101586.94
2019-02-18T06:44:50.458Z,101590.67
2019-02-18T06:47:21.529Z,101596.36
2019-02-18T06:50:03.331Z,101592.34
2019-02-18T06:52:38.634Z,101602.08
2019-02-18T06:55:14.508Z,101607.94
2019-02-18T06:58:16.408Z,101604.49
2019-02-18T07:00:54.106Z,101595.30
2019-02-18T07:03:40.986Z,101605.00
2019-02-18T07:06:12.772Z,101605.00
2019-02-18T07:08:44.603Z,101610.97
2019-02-18T07:11:23.787Z,101611.86
2019-02-18T07:13:53.952Z,101614.77
2019-02-18T07:16:26.117Z,101614.11
2019-02-18T07:19:04.662Z,101615.88
2019-02-18T07:21:46.207Z,101621.95
2019-02-18T07:24:16.383Z,101618.02
2019-02-18T07:26:46.616Z,101618.96
2019-02-18T07:29:22.758Z,101615.98
2019-02-18T07:31:52.980Z,101618.96
2019-02-18T07:34:27.373Z,101615.12
2019-02-18T07:36:57.589Z,101617.07
2019-02-18T07:39:27.833Z,101614.22
2019-02-18T07:41:58.006Z,101608.66
2019-02-18T07:44:32.209Z,101608.79
2019-02-18T07:47:02.927Z,101601.03
2019-02-18T07:49:52.891Z,101608.64
2019-02-18T07:52:23.133Z,101606.56
2019-02-18T07:54:53.333Z,101606.52
2019-02-18T07:57:29.494Z,101604.31
2019-02-18T08:00:12.303Z,101596.50
2019-02-18T08:02:48.235Z,101602.73
2019-02-18T08:05:29.587Z,101600.64
2019-02-18T08:07:59.839Z,101594.27
2019-02-18T08:10:30.016Z,101597.95
2019-02-18T08:13:14.975Z,101597.89
2019-02-18T08:15:45.158Z,101594.31
2019-02-18T08:18:16.290Z,101595.92
2019-02-18T08:20:46.497Z,101598.18
2019-02-18T08:23:16.714Z,101598.42
2019-02-18T08:25:46.956Z,101592.48
2019-02-18T08:28:17.178Z,101594.38
2019-02-18T08:30:52.316Z,101590.21
2019-02-18T08:33:22.526Z,101592.82
2019-02-18T08:35:52.801Z,101589.32
2019-02-18T08:38:28.995Z,101589.47
2019-02-18T08:40:59.190Z,101586.56
2019-02-18T08:43:30.635Z,101580.34
2019-02-18T08:46:07.674Z,101587.00
2019-02-18T08:48:49.761Z,101581.53
2019-02-18T08:51:19.932Z,101582.09
2019-02-18T08:54:02.073Z,101580.37
2019-02-18T08:56:32.257Z,101576.79
2019-02-18T08:59:03.445Z,101578.47
2019-02-18T09:01:33.637Z,101574.67
2019-02-18T09:04:03.850Z,101572.61
2019-02-18T09:06:40.992Z,101571.99
2019-02-18T09:09:11.197Z,101572.25
2019-02-18T09:11:41.377Z,101566.77
2019-02-18T09:14:12.519Z,101565.19
2019-02-18T09:16:43.570Z,101559.28
2019-02-18T09:19:19.035Z,101558.24
2019-02-18T09:21:50.864Z,101550.46
2019-02-18T09:24:47.730Z,101556.52
2019-02-18T09:27:17.923Z,101557.45
2019-02-18T09:29:50.737Z,101558.70
2019-02-18T09:32:25.744Z,101559.66
2019-02-18T09:35:02.114Z,101561.44
2019-02-18T09:37:31.015Z,101555.90
2019-02-18T09:40:09.129Z,101559.77
2019-02-18T09:42:39.324Z,101561.67
2019-02-18T09:45:28.703Z,101564.38
2019-02-18T09:47:58.928Z,101560.10
2019-02-18T09:50:29.165Z,101562.84
2019-02-18T09:52:59.341Z,101560.77
2019-02-18T09:55:29.570Z,101559.13
2019-02-18T09:58:00.679Z,101561.63
2019-02-18T10:00:32.805Z,101560.08
2019-02-18T10:03:03.901Z,101561.16
2019-02-18T10:05:34.099Z,101563.47
2019-02-18T10:08:09.280Z,101556.65
2019-02-18T10:10:39.489Z,101552.67
2019-02-18T10:13:09.679Z,101551.00
2019-02-18T10:15:52.756Z,101542.06
2019-02-18T10:18:22.939Z,101551.02
2019-02-18T10:20:53.155Z,101542.77
2019-02-18T10:23:23.340Z,101532.79
2019-02-18T10:25:55.489Z,101537.00
2019-02-18T10:28:35.583Z,101535.55
2019-02-18T10:31:06.700Z,101528.26
2019-02-18T10:33:54.105Z,101531.74
2019-02-18T10:36:24.322Z,101529.86
2019-02-18T10:38:54.511Z,101526.44
2019-02-18T10:41:24.726Z,101522.89
2019-02-18T10:43:55.003Z,101517.30
2019-02-18T10:46:25.207Z,101520.35
2019-02-18T10:48:56.330Z,101523.30
2019-02-18T10:51:26.546Z,101512.45
2019-02-18T10:53:59.698Z,101513.91
2019-02-18T10:56:30.244Z,101513.28
2019-02-18T10:59:00.457Z,101505.84
2019-02-18T11:01:32.615Z,101501.39
2019-02-18T11:04:04.720Z,101500.51
2019-02-18T11:06:48.231Z,101499.52
2019-02-18T11:09:18.426Z,101497.40
2019-02-18T11:11:48.833Z,101504.84
2019-02-18T11:14:19.031Z,101504.25
2019-02-18T11:16:55.312Z,101497.69
2019-02-18T11:19:29.274Z,101499.59
2019-02-18T11:21:59.506Z,101500.25
2019-02-18T11:24:31.638Z,101499.41
2019-02-18T11:27:02.754Z,101488.48
2019-02-18T11:29:32.948Z,101487.41
2019-02-18T11:32:04.135Z,101481.30
2019-02-18T11:34:36.334Z,101478.86
2019-02-18T11:37:13.874Z,101474.93
2019-02-18T11:39:44.520Z,101474.94
2019-02-18T11:42:14.732Z,101469.41
2019-02-18T11:44:44.905Z,101464.53
2019-02-18T11:47:15.104Z,101463.14
2019-02-18T11:49:49.633Z,101452.27
2019-02-18T11:52:27.554Z,101453.14
2019-02-18T11:55:01.653Z,101448.23
2019-02-18T11:57:34.777Z,101446.95
2019-02-18T12:00:15.305Z,101446.15
2019-02-18T12:03:03.987Z,101440.31
2019-02-18T12:05:44.528Z,101436.91
2019-02-18T12:08:19.047Z,101436.76
2019-02-18T12:10:52.297Z,101430.40
2019-02-18T12:13:27.380Z,101430.19
2019-02-18T12:15:58.479Z,101426.36
2019-02-18T12:18:29.963Z,101421.62
2019-02-18T12:21:06.329Z,101421.75
2019-02-18T12:23:37.617Z,101417.34
2019-02-18T12:26:07.795Z,101413.12
2019-02-18T12:28:39.966Z,101408.31
2019-02-18T12:31:10.324Z,101405.02
2019-02-18T12:33:41.466Z,101398.91
2019-02-18T12:36:11.664Z,101395.73
2019-02-18T12:38:45.722Z,101397.56
2019-02-18T12:41:15.912Z,101402.87
2019-02-18T12:43:46.418Z,101388.23
2019-02-18T12:46:16.623Z,101385.03
2019-02-18T12:48:53.696Z,101376.92
2019-02-18T12:51:23.890Z,101368.59
2019-02-18T12:54:04.525Z,101363.75
2019-02-18T12:56:25.976Z,101359.14
2019-02-18T12:58:56.202Z,101355.98
2019-02-18T13:01:27.782Z,101352.59
2019-02-18T13:04:00.065Z,101348.03
2019-02-18T13:06:30.258Z,101338.55
2019-02-18T13:09:10.723Z,101334.96
2019-02-18T13:11:42.926Z,101332.06
2019-02-18T13:14:19.032Z,101325.29
2019-02-18T13:16:49.306Z,101323.89
2019-02-18T13:19:22.498Z,101318.27
2019-02-18T13:21:52.685Z,101311.23
2019-02-18T13:24:31.250Z,101309.44
2019-02-18T13:27:11.794Z,101305.08
2019-02-18T13:29:57.148Z,101301.20
2019-02-18T13:32:27.627Z,101292.84
2019-02-18T13:35:07.831Z,101287.11
2019-02-18T13:37:38.022Z,101281.48
2019-02-18T13:40:15.936Z,101275.08
2019-02-18T13:42:46.548Z,101274.48
2019-02-18T13:45:16.734Z,101270.70
2019-02-18T13:47:46.938Z,101261.30
2019-02-18T13:50:17.127Z,101258.53
2019-02-18T13:52:47.322Z,101254.28
2019-02-18T13:55:18.451Z,101256.91
2019-02-18T13:57:49.628Z,101252.16
2019-02-18T14:00:25.678Z,101250.39
2019-02-18T14:03:14.380Z,101247.41
2019-02-18T14:05:44.956Z,101245.30
2019-02-18T14:08:17.091Z,101245.65
2019-02-18T14:10:47.321Z,101240.37
2019-02-18T14:13:20.691Z,101233.44
2019-02-18T14:15:50.906Z,101235.59
2019-02-18T14:18:24.403Z,101236.56
2019-02-18T14:20:54.630Z,101235.77
2019-02-18T14:23:24.824Z,101234.58
2019-02-18T14:25:55.019Z,101227.11
2019-02-18T14:28:35.656Z,101227.11
2019-02-18T14:31:05.917Z,101225.45
2019-02-18T14:33:41.220Z,101221.64
2019-02-18T14:36:15.976Z,101222.48
2019-02-18T14:39:00.478Z,101218.13
2019-02-18T14:41:34.402Z,101213.23
2019-02-18T14:44:04.961Z,101224.70
2019-02-18T14:46:35.158Z,101222.03
2019-02-18T14:49:05.368Z,101220.62
2019-02-18T14:51:35.570Z,101216.83
2019-02-18T14:54:05.778Z,101218.44
2019-02-18T14:56:36.003Z,101218.36
2019-02-18T14:59:10.337Z,101214.38
2019-02-18T15:01:40.561Z,101217.95
2019-02-18T15:04:18.267Z,101219.11
2019-02-18T15:07:04.456Z,101216.52
2019-02-18T15:09:40.219Z,101216.87
2019-02-18T15:12:39.731Z,101214.72
2019-02-18T15:15:14.738Z,101216.52
2019-02-18T15:17:58.013Z,101217.67
2019-02-18T15:20:30.203Z,101220.38
2019-02-18T15:23:10.324Z,101216.77
2019-02-18T15:25:44.050Z,101213.50
2019-02-18T15:28:14.308Z,101217.52
2019-02-18T15:30:47.886Z,101212.41
2019-02-18T15:33:31.201Z,101210.55
2019-02-18T15:36:01.517Z,101202.57
2019-02-18T15:38:31.737Z,101204.50
2019-02-18T15:41:04.295Z,101202.60
2019-02-18T15:43:34.498Z,101199.41
2019-02-18T15:46:05.758Z,101193.97
2019-02-18T15:48:36.503Z,101197.66
2019-02-18T15:51:06.797Z,101198.92
2019-02-18T15:54:05.838Z,101195.84
2019-02-18T15:56:42.371Z,101185.94
2019-02-18T15:59:12.579Z,101188.72
2019-02-18T16:01:48.820Z,101185.09
2019-02-18T16:04:31.926Z,101180.89
2019-02-18T16:07:02.166Z,101181.08
2019-02-18T16:09:38.148Z,101183.46
2019-02-18T16:12:28.593Z,101180.44
2019-02-18T16:14:58.806Z,101181.16
2019-02-18T16:17:35.636Z,101188.30
2019-02-18T16:20:13.534Z,101183.10
2019-02-18T16:22:43.797Z,101181.30
2019-02-18T16:25:24.190Z,101179.87
2019-02-18T16:27:54.390Z,101179.83
2019-02-18T16:30:24.970Z,101182.39
2019-02-18T16:32:57.179Z,101182.11
2019-02-18T16:35:27.668Z,101175.28
2019-02-18T16:38:22.949Z,101180.11
2019-02-18T16:40:53.171Z,101180.63
2019-02-18T16:43:23.644Z,101179.81
2019-02-18T16:45:57.120Z,101183.17
2019-02-18T16:48:27.497Z,101195.89
2019-02-18T16:51:10.623Z,101189.16
2019-02-18T16:53:40.815Z,101194.98
2019-02-18T16:56:11.037Z,101190.05
2019-02-18T16:58:52.274Z,101188.94
2019-02-18T17:01:29.817Z,101189.16
2019-02-18T17:04:00.005Z,101191.31
2019-02-18T17:06:37.747Z,101192.87
2019-02-18T17:09:12.227Z,101186.42
2019-02-18T17:11:42.701Z,101190.20
2019-02-18T17:14:13.956Z,101188.77
2019-02-18T17:16:44.145Z,101184.33
2019-02-18T17:19:23.408Z,101186.92
2019-02-18T17:21:53.607Z,101187.34
2019-02-18T17:24:37.113Z,101196.80
2019-02-18T17:27:07.333Z,101187.15
2019-02-18T17:29:50.180Z,101187.03
2019-02-18T17:32:22.715Z,101197.56
2019-02-18T17:34:53.832Z,101197.16
2019-02-18T17:37:24.044Z,101202.38
2019-02-18T17:39:54.243Z,101199.84
2019-02-18T17:42:24.437Z,101197.05
2019-02-18T17:44:56.575Z,101202.55
2019-02-18T17:47:26.776Z,101203.88
2019-02-18T17:49:56.978Z,101209.98
2019-02-18T17:52:27.167Z,101204.48
2019-02-18T17:55:04.643Z,101198.58
2019-02-18T17:57:41.666Z,101195.63
2019-02-18T18:00:15.964Z,101201.45
2019-02-18T18:02:51.147Z,101202.19
2019-02-18T18:05:28.839Z,101204.66
2019-02-18T18:08:02.459Z,101199.42
2019-02-18T18:10:32.748Z,101208.52
2019-02-18T18:13:02.947Z,101209.36
2019-02-18T18:15:38.662Z,101210.39
2019-02-18T18:18:08.917Z,101212.73
2019-02-18T18:20:39.501Z,101215.38
2019-02-18T18:23:09.698Z,101216.17
2019-02-18T18:25:39.918Z,101221.98
2019-02-18T18:28:37.649Z,101219.81
2019-02-18T18:31:20.412Z,101219.37
2019-02-18T18:33:50.626Z,101226.41
2019-02-18T18:36:42.255Z,101231.62
2019-02-18T18:39:12.437Z,101227.92
2019-02-18T18:41:50.867Z,101229.09
2019-02-18T18:44:31.951Z,101229.97
2019-02-18T18:47:10.741Z,101233.39
2019-02-18T18:49:54.227Z,101226.58
2019-02-18T18:52:24.427Z,101233.58
2019-02-18T18:54:56.555Z,101231.09
2019-02-18T18:57:26.741Z,101233.08
2019-02-18T18:59:56.949Z,101236.00
2019-02-18T19:02:38.430Z,101232.38
2019-02-18T19:05:18.728Z,101236.61
2019-02-18T19:08:06.111Z,101237.40
2019-02-18T19:10:36.486Z,101243.34
2019-02-18T19:13:06.860Z,101242.68
2019-02-18T19:15:49.794Z,101241.23
2019-02-18T19:18:20.008Z,101245.34
2019-02-18T19:20:51.276Z,101240.25
2019-02-18T19:23:46.643Z,101244.98
2019-02-18T19:26:21.681Z,101249.81
2019-02-18T19:28:52.189Z,101252.59
2019-02-18T19:31:22.363Z,101250.73
2019-02-18T19:33:52.551Z,101254.41
2019-02-18T19:36:46.525Z,101252.86
2019-02-18T19:39:48.516Z,101251.52
2019-02-18T19:42:20.745Z,101253.20
2019-02-18T19:44:50.931Z,101255.25
2019-02-18T19:47:36.392Z,101257.05
2019-02-18T19:50:07.735Z,101261.91
2019-02-18T19:52:37.958Z,101258.52
2019-02-18T19:55:10.185Z,101263.54
2019-02-18T19:57:40.454Z,101269.91
2019-02-18T20:00:18.798Z,101263.27
2019-02-18T20:02:49.059Z,101271.67
2019-02-18T20:05:34.593Z,101270.53
2019-02-18T20:08:09.070Z,101268.27
2019-02-18T20:10:39.415Z,101274.95
2019-02-18T20:13:09.604Z,101269.94
2019-02-18T20:16:19.368Z,101267.09
2019-02-18T20:18:49.569Z,101260.19
2019-02-18T20:21:31.732Z,101262.98
2019-02-18T20:24:01.930Z,101262.30
2019-02-18T20:26:41.282Z,101268.13
2019-02-18T20:29:13.718Z,101269.80
2019-02-18T20:31:44.199Z,101269.52
2019-02-18T20:34:14.412Z,101272.45
2019-02-18T20:36:44.586Z,101274.77
2019-02-18T20:39:15.047Z,101268.49
2019-02-18T20:41:52.256Z,101273.83
2019-02-18T20:44:22.443Z,101274.57
2019-02-18T20:46:52.635Z,101271.37
2019-02-18T20:49:23.120Z,101267.42
2019-02-18T20:51:55.592Z,101269.39
2019-02-18T20:54:25.809Z,101272.58
2019-02-18T20:57:22.522Z,101261.89
2019-02-18T20:59:53.099Z,101272.23
2019-02-18T21:02:27.890Z,101266.18
2019-02-18T21:05:05.684Z,101268.63
2019-02-18T21:07:46.890Z,101264.67
2019-02-18T21:10:20.944Z,101269.34
2019-02-18T21:12:51.213Z,101273.63
2019-02-18T21:15:21.429Z,101279.48
2019-02-18T21:17:53.518Z,101278.43
2019-02-18T21:20:23.703Z,101271.28
2019-02-18T21:22:55.913Z,101284.92
2019-02-18T21:25:30.586Z,101285.00
2019-02-18T21:28:07.852Z,101283.08
2019-02-18T21:30:38.043Z,101279.42
2019-02-18T21:33:08.598Z,101281.64
2019-02-18T21:35:45.203Z,101286.81
2019-02-18T21:38:22.232Z,101281.41
2019-02-18T21:40:52.449Z,101269.81
2019-02-18T21:43:53.150Z,101269.95
2019-02-18T21:46:34.666Z,101265.98
2019-02-18T21:49:29.439Z,101275.62
2019-02-18T21:52:00.578Z,101271.48
2019-02-18T21:55:00.328Z,101273.75
2019-02-18T21:57:30.928Z,101272.39
2019-02-18T22:00:22.761Z,101273.29
2019-02-18T22:03:02.402Z,101278.32
2019-02-18T22:05:51.781Z,101269.75
2019-02-18T22:08:23.232Z,101271.91
2019-02-18T22:10:55.338Z,101275.22
2019-02-18T22:13:25.718Z,101272.44
2019-02-18T22:15:55.919Z,101273.66
2019-02-18T22:18:27.083Z,101270.97
2019-02-18T22:20:57.275Z,101268.95
2019-02-18T22:23:29.983Z,101270.02
2019-02-18T22:26:00.680Z,101264.24
2019-02-18T22:28:31.330Z,101270.41
2019-02-18T22:31:14.502Z,101270.14
2019-02-18T22:33:44.799Z,101272.94
2019-02-18T22:36:43.585Z,101267.22
2019-02-18T22:39:13.951Z,101273.47
2019-02-18T22:41:49.956Z,101272.59
2019-02-18T22:44:26.041Z,101272.94
2019-02-18T22:47:00.293Z,101275.36
2019-02-18T22:49:32.697Z,101271.50
2019-02-18T22:52:20.047Z,101273.14
2019-02-18T22:54:50.973Z,101270.23
2019-02-18T22:57:55.979Z,101273.82
2019-02-18T23:00:45.630Z,101270.58
2019-02-18T23:03:30.358Z,101270.59
2019-02-18T23:06:07.489Z,101269.11
2019-02-18T23:08:37.699Z,101266.05
2019-02-18T23:11:09.575Z,101264.53
2019-02-18T23:13:39.818Z,101264.25
2019-02-18T23:16:10.074Z,101267.67
2019-02-18T23:18:44.434Z,101263.78
2019-02-18T23:21:20.849Z,101274.66
2019-02-18T23:23:51.395Z,101271.16
2019-02-18T23:26:21.873Z,101270.78
2019-02-18T23:28:52.320Z,101268.38
2019-02-18T23:33:55.996Z,101264.69
2019-02-18T23:36:26.793Z,101258.88
2019-02-18T23:39:16.569Z,101262.19
2019-02-18T23:41:46.996Z,101260.50
2019-02-18T23:44:33.560Z,101268.88
2019-02-18T23:47:03.739Z,101264.71
2019-02-18T23:49:33.934Z,101258.25
2019-02-18T23:52:04.116Z,101266.56
2019-02-18T23:54:34.318Z,101260.47
2019-02-18T23:57:04.502Z,101263.19
2019-02-18T23:59:41.824Z,101262.53
